createdAt,value
2022-12-23T00:00:11.651Z,8.18
2022-12-23T00:02:39.900Z,8.80
2022-12-23T00:05:07.216Z,9.70
2022-12-23T00:07:34.132Z,7.95
2022-12-23T00:10:00.745Z,7.97
2022-12-23T00:12:27.339Z,8.77
2022-12-23T00:14:53.992Z,8.60
2022-12-23T00:17:22.943Z,9.75
2022-12-23T00:19:51.268Z,9.23
2022-12-23T00:22:17.840Z,7.35
2022-12-23T00:24:44.566Z,8.98
2022-12-23T00:27:11.115Z,9.80
2022-12-23T00:29:37.749Z,10.27
2022-12-23T00:32:04.687Z,7.95
2022-12-23T00:34:31.353Z,7.95
2022-12-23T00:36:59.426Z,6.80
2022-12-23T00:39:25.981Z,6.70
2022-12-23T00:41:52.652Z,6.35
2022-12-23T00:44:19.277Z,6.18
2022-12-23T00:46:45.872Z,6.93
2022-12-23T00:49:14.061Z,6.05
2022-12-23T00:51:40.849Z,5.73
2022-12-23T00:54:08.833Z,8.63
2022-12-23T00:56:35.426Z,9.25
2022-12-23T00:59:01.949Z,8.27
2022-12-23T01:01:28.701Z,7.22
2022-12-23T01:03:55.473Z,7.83
2022-12-23T01:06:21.974Z,6.97
2022-12-23T01:08:48.638Z,8.23
2022-12-23T01:11:16.546Z,7.28
2022-12-23T01:13:43.088Z,7.40
2022-12-23T01:16:16.932Z,9.40
2022-12-23T01:18:44.919Z,8.90
2022-12-23T01:21:12.288Z,6.88
2022-12-23T01:23:38.854Z,5.93
2022-12-23T01:26:07.274Z,6.45
2022-12-23T01:28:35.800Z,6.73
2022-12-23T01:31:04.624Z,5.93
2022-12-23T01:33:31.753Z,7.97
2022-12-23T01:36:02.253Z,6.10
2022-12-23T01:38:29.228Z,7.82
2022-12-23T01:40:56.143Z,8.50
2022-12-23T01:43:23.990Z,7.38
2022-12-23T01:45:52.157Z,7.05
2022-12-23T01:48:22.631Z,6.80
2022-12-23T01:50:53.538Z,8.15
2022-12-23T01:53:22.106Z,10.03
2022-12-23T01:55:52.112Z,8.60
2022-12-23T01:58:23.245Z,8.65
2022-12-23T02:00:49.787Z,9.13
2022-12-23T02:03:17.784Z,6.28
2022-12-23T02:05:45.547Z,10.53
2022-12-23T02:08:14.847Z,7.55
2022-12-23T02:11:03.075Z,7.43
2022-12-23T02:13:41.616Z,7.15
2022-12-23T02:16:13.945Z,6.90
2022-12-23T02:19:04.881Z,6.53
2022-12-23T02:21:46.281Z,7.85
2022-12-23T02:24:51.800Z,7.28
2022-12-23T02:27:26.127Z,6.53
2022-12-23T02:30:07.974Z,6.53
2022-12-23T02:32:45.402Z,6.93
2022-12-23T02:35:18.067Z,6.97
2022-12-23T02:37:53.437Z,6.55
2022-12-23T02:40:32.737Z,7.85
2022-12-23T02:43:02.210Z,6.15
2022-12-23T02:45:35.775Z,7.47
2022-12-23T02:48:08.476Z,6.90
2022-12-23T02:50:38.136Z,8.55
2022-12-23T02:53:10.880Z,9.35
2022-12-23T02:55:40.065Z,7.72
2022-12-23T02:58:11.093Z,8.37
2022-12-23T03:00:40.640Z,6.80
2022-12-23T03:03:09.045Z,8.85
2022-12-23T03:05:38.298Z,9.27
2022-12-23T03:08:10.462Z,6.93
2022-12-23T03:10:44.404Z,7.93
2022-12-23T03:13:16.780Z,8.18
2022-12-23T03:15:50.857Z,9.85
2022-12-23T03:18:28.135Z,7.05
2022-12-23T03:21:03.378Z,7.85
2022-12-23T03:23:35.622Z,8.17
2022-12-23T03:26:08.107Z,8.02
2022-12-23T03:28:43.420Z,7.20
2022-12-23T03:31:14.324Z,6.25
2022-12-23T03:33:45.102Z,6.90
2022-12-23T03:36:16.742Z,7.07
2022-12-23T03:38:45.111Z,8.13
2022-12-23T03:41:24.892Z,8.18
2022-12-23T03:43:56.969Z,8.23
2022-12-23T03:46:29.937Z,9.50
2022-12-23T03:49:01.332Z,8.53
2022-12-23T03:51:34.288Z,7.07
2022-12-23T03:54:05.179Z,8.23
2022-12-23T03:56:36.349Z,8.55
2022-12-23T03:59:11.685Z,6.15
2022-12-23T04:01:57.216Z,7.87
2022-12-23T04:04:32.308Z,7.40
2022-12-23T04:07:03.484Z,6.97
2022-12-23T04:09:30.021Z,7.03
2022-12-23T04:11:58.174Z,5.85
2022-12-23T04:14:24.767Z,9.13
2022-12-23T04:16:55.020Z,7.35
2022-12-23T04:19:21.849Z,6.53
2022-12-23T04:21:49.989Z,7.95
2022-12-23T04:24:16.697Z,7.35
2022-12-23T04:26:43.436Z,6.43
2022-12-23T04:29:09.996Z,6.38
2022-12-23T04:31:36.805Z,6.80
2022-12-23T04:34:03.398Z,6.93
2022-12-23T04:36:29.957Z,6.80
2022-12-23T04:38:58.064Z,7.17
2022-12-23T04:41:24.589Z,7.05
2022-12-23T04:43:53.387Z,6.00
2022-12-23T04:46:20.236Z,5.82
2022-12-23T04:48:46.967Z,6.60
2022-12-23T04:51:13.492Z,6.00
2022-12-23T04:53:40.147Z,5.95
2022-12-23T04:56:08.084Z,6.70
2022-12-23T04:58:34.782Z,7.00
2022-12-23T05:01:02.107Z,6.13
2022-12-23T05:03:28.984Z,5.60
2022-12-23T05:05:55.735Z,5.65
2022-12-23T05:08:22.280Z,6.40
2022-12-23T05:10:48.980Z,5.55
2022-12-23T05:13:16.928Z,5.97
2022-12-23T05:15:44.588Z,5.43
2022-12-23T05:18:11.396Z,5.10
2022-12-23T05:20:38.200Z,6.25
2022-12-23T05:23:04.930Z,5.85
2022-12-23T05:25:32.716Z,6.38
2022-12-23T05:27:59.343Z,6.53
2022-12-23T05:30:27.320Z,6.20
2022-12-23T05:32:54.554Z,6.63
2022-12-23T05:35:21.738Z,7.30
2022-12-23T05:37:48.307Z,7.32
2022-12-23T05:40:18.469Z,6.30
2022-12-23T05:42:48.209Z,6.55
2022-12-23T05:45:14.839Z,7.13
2022-12-23T05:47:42.712Z,7.65
2022-12-23T05:50:09.695Z,7.63
2022-12-23T05:52:36.276Z,6.90
2022-12-23T05:55:03.098Z,7.47
2022-12-23T05:57:29.655Z,5.75
2022-12-23T05:59:56.138Z,5.43
2022-12-23T06:02:22.786Z,6.07
2022-12-23T06:04:50.796Z,5.27
2022-12-23T06:07:17.521Z,5.20
2022-12-23T06:09:44.035Z,4.78
2022-12-23T06:12:10.574Z,5.60
2022-12-23T06:14:37.113Z,6.32
2022-12-23T06:17:03.956Z,5.60
2022-12-23T06:19:30.595Z,5.38
2022-12-23T06:21:58.613Z,6.55
2022-12-23T06:24:25.169Z,5.10
2022-12-23T06:26:56.861Z,6.75
2022-12-23T06:29:24.385Z,7.20
2022-12-23T06:31:51.025Z,4.80
2022-12-23T06:34:17.898Z,5.32
2022-12-23T06:36:44.469Z,5.78
2022-12-23T06:39:12.654Z,6.43
2022-12-23T06:41:39.232Z,6.00
2022-12-23T06:44:06.138Z,5.60
2022-12-23T06:46:32.770Z,5.35
2022-12-23T06:48:59.346Z,4.82
2022-12-23T06:51:25.914Z,5.18
2022-12-23T06:53:52.501Z,6.30
2022-12-23T06:56:20.837Z,5.38
2022-12-23T06:58:47.382Z,6.07
2022-12-23T07:01:14.095Z,4.97
2022-12-23T07:03:40.809Z,4.82
2022-12-23T07:06:07.900Z,6.83
2022-12-23T07:08:34.404Z,5.47
2022-12-23T07:11:02.134Z,4.72
2022-12-23T07:13:30.599Z,6.68
2022-12-23T07:15:57.369Z,6.03
2022-12-23T07:18:24.730Z,5.20
2022-12-23T07:20:51.487Z,5.72
2022-12-23T07:23:18.414Z,6.97
2022-12-23T07:25:45.037Z,5.65
2022-12-23T07:28:11.590Z,4.82
2022-12-23T07:30:39.484Z,6.80
2022-12-23T07:33:06.022Z,6.78
2022-12-23T07:35:32.636Z,5.45
2022-12-23T07:37:59.413Z,6.35
2022-12-23T07:40:26.111Z,6.45
2022-12-23T07:42:55.312Z,6.83
2022-12-23T07:45:21.885Z,5.85
2022-12-23T07:47:52.133Z,5.88
2022-12-23T07:50:18.668Z,8.95
2022-12-23T07:52:45.166Z,5.38
2022-12-23T07:55:11.914Z,6.67
2022-12-23T07:57:38.697Z,6.72
2022-12-23T08:00:06.553Z,6.53
2022-12-23T08:02:33.283Z,6.32
2022-12-23T08:05:01.752Z,6.22
2022-12-23T08:07:28.510Z,4.97
2022-12-23T08:09:55.070Z,6.70
2022-12-23T08:12:21.593Z,7.22
2022-12-23T08:14:48.117Z,7.55
2022-12-23T08:17:14.942Z,5.75
2022-12-23T08:19:41.658Z,8.30
2022-12-23T08:22:09.598Z,5.65
2022-12-23T08:24:36.142Z,6.22
2022-12-23T08:27:02.717Z,4.97
2022-12-23T08:29:34.338Z,6.18
2022-12-23T08:32:03.013Z,5.70
2022-12-23T08:34:29.700Z,5.07
2022-12-23T08:36:56.364Z,5.82
2022-12-23T08:39:24.319Z,6.00
2022-12-23T08:41:51.049Z,6.35
2022-12-23T08:44:17.832Z,8.77
2022-12-23T08:46:44.922Z,6.68
2022-12-23T08:49:11.633Z,6.38
2022-12-23T08:51:38.512Z,6.00
2022-12-23T08:54:05.474Z,6.55
2022-12-23T08:56:36.161Z,5.03
2022-12-23T08:59:03.623Z,5.80
2022-12-23T09:01:32.573Z,6.10
2022-12-23T09:04:01.953Z,6.75
2022-12-23T09:06:31.688Z,5.63
2022-12-23T09:08:59.037Z,5.23
2022-12-23T09:11:27.871Z,5.45
2022-12-23T09:13:56.602Z,6.50
2022-12-23T09:16:23.658Z,5.35
2022-12-23T09:18:50.250Z,4.55
2022-12-23T09:21:19.097Z,4.90
2022-12-23T09:23:45.643Z,6.93
2022-12-23T09:26:18.343Z,6.03
2022-12-23T09:28:45.102Z,6.13
2022-12-23T09:31:14.390Z,5.15
2022-12-23T09:33:41.165Z,6.13
2022-12-23T09:36:08.411Z,5.45
2022-12-23T09:38:35.597Z,5.45
2022-12-23T09:41:03.825Z,5.20
2022-12-23T09:43:42.271Z,5.28
2022-12-23T09:46:16.585Z,6.10
2022-12-23T09:48:49.011Z,6.80
2022-12-23T09:51:20.518Z,8.23
2022-12-23T09:53:54.662Z,7.10
2022-12-23T09:56:27.466Z,7.05
2022-12-23T09:59:05.079Z,6.67
2022-12-23T10:01:44.612Z,6.30
2022-12-23T10:04:36.436Z,5.68
2022-12-23T10:07:22.079Z,6.38
2022-12-23T10:09:53.661Z,6.43
2022-12-23T10:12:34.328Z,5.40
2022-12-23T10:15:16.199Z,6.82
2022-12-23T10:17:45.577Z,5.97
2022-12-23T10:20:17.618Z,8.55
2022-12-23T10:22:45.566Z,5.70
2022-12-23T10:25:15.676Z,7.17
2022-12-23T10:27:44.087Z,5.85
2022-12-23T10:30:51.651Z,6.93
2022-12-23T10:33:14.748Z,9.80
2022-12-23T10:35:48.992Z,6.95
2022-12-23T10:38:32.370Z,7.33
2022-12-23T10:41:09.479Z,7.43
2022-12-23T10:43:47.172Z,4.72
2022-12-23T10:46:19.506Z,6.97
2022-12-23T10:48:58.558Z,5.47
2022-12-23T10:51:30.020Z,5.47
2022-12-23T10:54:01.306Z,4.88
2022-12-23T10:56:29.640Z,6.68
2022-12-23T10:58:59.387Z,5.72
2022-12-23T11:01:27.836Z,6.88
2022-12-23T11:04:03.551Z,5.20
2022-12-23T11:06:37.275Z,6.97
2022-12-23T11:09:05.222Z,7.28
2022-12-23T11:11:53.951Z,5.38
2022-12-23T11:14:30.986Z,6.97
2022-12-23T11:16:57.523Z,4.57
2022-12-23T11:19:25.460Z,4.30
2022-12-23T11:21:55.000Z,5.97
2022-12-23T11:24:23.590Z,4.60
2022-12-23T11:26:59.053Z,4.43
2022-12-23T11:29:31.271Z,5.70
2022-12-23T11:31:58.121Z,5.07
2022-12-23T11:34:29.919Z,5.32
2022-12-23T11:37:03.689Z,6.18
2022-12-23T11:39:36.742Z,5.93
2022-12-23T11:42:11.049Z,6.10
2022-12-23T11:44:40.458Z,6.65
2022-12-23T11:47:26.846Z,5.05
2022-12-23T11:49:56.618Z,3.75
2022-12-23T11:52:24.991Z,4.40
2022-12-23T11:54:54.582Z,3.90
2022-12-23T11:57:27.416Z,5.32
2022-12-23T11:59:59.482Z,4.75
2022-12-23T12:02:34.108Z,4.75
2022-12-23T12:05:04.965Z,4.75
2022-12-23T12:07:32.872Z,5.37
2022-12-23T12:10:01.217Z,5.10
2022-12-23T12:12:29.146Z,5.60
2022-12-23T12:14:57.470Z,8.27
2022-12-23T12:17:27.536Z,3.70
2022-12-23T12:20:01.780Z,7.53
2022-12-23T12:22:38.755Z,6.90
2022-12-23T12:25:15.902Z,7.82
2022-12-23T12:27:45.932Z,5.32
2022-12-23T12:30:17.380Z,7.32
2022-12-23T12:32:51.443Z,9.37
2022-12-23T12:35:22.299Z,6.50
2022-12-23T12:37:55.401Z,4.85
2022-12-23T12:40:30.467Z,4.63
2022-12-23T12:43:02.637Z,5.20
2022-12-23T12:45:37.748Z,8.40
2022-12-23T12:48:19.169Z,6.82
2022-12-23T12:50:55.081Z,4.03
2022-12-23T12:53:23.525Z,4.90
2022-12-23T12:55:55.036Z,8.82
2022-12-23T12:58:23.762Z,3.13
2022-12-23T13:01:03.247Z,5.35
2022-12-23T13:04:02.758Z,3.95
2022-12-23T13:06:39.263Z,4.65
2022-12-23T13:09:17.987Z,7.72
2022-12-23T13:11:54.959Z,6.57
2022-12-23T13:14:31.920Z,6.35
2022-12-23T13:17:08.203Z,6.53
2022-12-23T13:19:42.386Z,6.78
2022-12-23T13:22:11.157Z,7.68
2022-12-23T13:24:52.657Z,5.53
2022-12-23T13:27:26.006Z,5.95
2022-12-23T13:30:11.172Z,6.43
2022-12-23T13:33:03.289Z,5.55
2022-12-23T13:35:41.247Z,5.07
2022-12-23T13:38:21.136Z,6.73
2022-12-23T13:40:58.040Z,4.80
2022-12-23T13:43:31.085Z,7.72
2022-12-23T13:46:03.630Z,7.75
2022-12-23T13:48:39.465Z,6.32
2022-12-23T13:51:13.929Z,5.57
2022-12-23T13:53:52.985Z,8.00
2022-12-23T13:56:29.231Z,9.25
2022-12-23T13:58:56.664Z,6.78
2022-12-23T14:01:34.832Z,5.63
2022-12-23T14:04:34.921Z,21.60
2022-12-23T14:07:05.385Z,26.38
2022-12-23T14:09:36.089Z,9.98
2022-12-23T14:12:20.309Z,8.57
2022-12-23T14:15:00.575Z,11.20
2022-12-23T14:17:33.910Z,8.17
2022-12-23T14:20:19.257Z,7.30
2022-12-23T14:22:59.238Z,7.07
2022-12-23T14:25:37.757Z,5.32
2022-12-23T14:28:18.691Z,13.35
2022-12-23T14:30:45.423Z,6.77
2022-12-23T14:33:22.469Z,4.90
2022-12-23T14:35:52.300Z,6.07
2022-12-23T14:38:30.370Z,4.75
2022-12-23T14:41:21.283Z,5.30
2022-12-23T14:43:53.030Z,4.10
2022-12-23T14:46:57.434Z,5.55
2022-12-23T14:49:41.113Z,4.88
2022-12-23T14:52:48.806Z,5.30
2022-12-23T14:55:40.890Z,5.30
2022-12-23T14:58:26.566Z,9.40
2022-12-23T15:01:00.409Z,9.15
2022-12-23T15:03:32.561Z,11.80
2022-12-23T15:06:03.467Z,10.73
2022-12-23T15:08:32.674Z,11.07
2022-12-23T15:10:59.657Z,7.80
2022-12-23T15:13:29.088Z,6.55
2022-12-23T15:16:01.232Z,4.50
2022-12-23T15:18:28.307Z,5.38
2022-12-23T15:20:59.723Z,5.40
2022-12-23T15:23:26.477Z,5.63
2022-12-23T15:25:56.844Z,4.90
2022-12-23T15:28:33.119Z,6.13
2022-12-23T15:31:04.192Z,5.50
2022-12-23T15:36:27.402Z,6.67
2022-12-23T15:38:53.997Z,5.50
2022-12-23T15:41:20.510Z,6.60
2022-12-23T15:43:47.022Z,7.07
2022-12-23T15:46:23.448Z,6.45
2022-12-23T15:48:53.940Z,5.47
2022-12-23T15:51:57.581Z,5.82
2022-12-23T15:54:22.950Z,6.38
2022-12-23T15:56:52.593Z,5.13
2022-12-23T15:59:24.394Z,8.05
2022-12-23T16:01:53.410Z,5.57
2022-12-23T16:04:24.397Z,6.55
2022-12-23T16:06:51.892Z,7.18
2022-12-23T16:09:37.216Z,6.75
2022-12-23T16:12:20.437Z,7.93
2022-12-23T16:14:52.788Z,6.80
2022-12-23T16:17:30.095Z,6.53
2022-12-23T16:20:18.777Z,7.47
2022-12-23T16:22:45.629Z,6.75
2022-12-23T16:25:17.885Z,5.70
2022-12-23T16:27:48.460Z,7.27
2022-12-23T16:30:17.692Z,6.20
2022-12-23T16:32:51.413Z,7.32
2022-12-23T16:35:28.592Z,7.50
2022-12-23T16:37:59.195Z,6.53
2022-12-23T16:40:25.854Z,6.53
2022-12-23T16:42:52.462Z,6.85
2022-12-23T16:45:19.703Z,5.65
2022-12-23T16:47:46.487Z,5.75
2022-12-23T16:50:15.025Z,5.80
2022-12-23T16:52:41.709Z,8.23
2022-12-23T16:55:14.994Z,8.75
2022-12-23T16:57:41.684Z,10.23
2022-12-23T17:00:12.690Z,11.85
2022-12-23T17:02:39.549Z,5.60
2022-12-23T17:05:07.229Z,6.57
2022-12-23T17:07:38.704Z,6.35
2022-12-23T17:10:09.446Z,7.57
2022-12-23T17:12:36.158Z,7.90
2022-12-23T17:15:05.356Z,8.25
2022-12-23T17:17:31.967Z,7.70
2022-12-23T17:19:58.565Z,8.48
2022-12-23T17:22:25.847Z,8.73
2022-12-23T17:24:53.798Z,4.82
2022-12-23T17:27:20.357Z,4.47
2022-12-23T17:29:46.926Z,4.73
2022-12-23T17:32:16.714Z,3.50
2022-12-23T17:34:43.426Z,5.50
2022-12-23T17:37:14.516Z,3.83
2022-12-23T17:39:42.904Z,4.95
2022-12-23T17:42:17.750Z,6.17
2022-12-23T17:44:48.548Z,5.28
2022-12-23T17:47:16.958Z,4.82
2022-12-23T17:49:44.905Z,5.35
2022-12-23T17:52:13.732Z,7.15
2022-12-23T17:54:40.515Z,4.80
2022-12-23T17:57:17.518Z,4.38
2022-12-23T17:59:47.682Z,6.15
2022-12-23T18:02:21.551Z,4.35
2022-12-23T18:04:48.372Z,5.57
2022-12-23T18:07:15.089Z,4.27
2022-12-23T18:09:41.639Z,5.63
2022-12-23T18:12:24.957Z,5.00
2022-12-23T18:14:52.154Z,6.28
2022-12-23T18:17:18.749Z,5.78
2022-12-23T18:19:45.388Z,4.57
2022-12-23T18:22:17.823Z,5.22
2022-12-23T18:24:45.637Z,6.45
2022-12-23T18:27:13.885Z,5.10
2022-12-23T18:29:42.251Z,5.20
2022-12-23T18:32:19.736Z,5.20
2022-12-23T18:34:46.321Z,5.30
2022-12-23T18:37:13.060Z,6.00
2022-12-23T18:39:39.769Z,7.80
2022-12-23T18:42:06.361Z,6.93
2022-12-23T18:44:34.051Z,5.90
2022-12-23T18:47:02.284Z,5.57
2022-12-23T18:49:28.947Z,5.03
2022-12-23T18:51:55.464Z,5.95
2022-12-23T18:54:22.003Z,6.15
2022-12-23T18:56:48.580Z,5.70
2022-12-23T18:59:16.723Z,6.97
2022-12-23T19:01:43.343Z,6.07
2022-12-23T19:04:11.435Z,6.38
2022-12-23T19:06:38.617Z,6.75
2022-12-23T19:09:05.804Z,8.70
2022-12-23T19:11:32.768Z,5.03
2022-12-23T19:13:59.682Z,9.68
2022-12-23T19:16:26.310Z,6.55
2022-12-23T19:18:52.904Z,5.55
2022-12-23T19:21:20.821Z,6.27
2022-12-23T19:23:47.351Z,5.20
2022-12-23T19:26:14.765Z,6.68
2022-12-23T19:28:42.126Z,6.40
2022-12-23T19:31:09.464Z,8.00
2022-12-23T19:33:36.824Z,6.60
2022-12-23T19:36:08.313Z,7.72
2022-12-23T19:38:36.598Z,6.88
2022-12-23T19:41:03.259Z,10.63
2022-12-23T19:43:29.954Z,10.65
2022-12-23T19:45:57.731Z,8.40
2022-12-23T19:48:24.480Z,10.63
2022-12-23T19:50:56.293Z,5.40
2022-12-23T19:53:22.953Z,6.15
2022-12-23T19:55:59.160Z,5.13
2022-12-23T19:58:26.339Z,6.50
2022-12-23T20:00:53.106Z,7.47
2022-12-23T20:03:19.857Z,7.25
2022-12-23T20:05:50.614Z,7.32
2022-12-23T20:08:17.210Z,6.22
2022-12-23T20:10:44.141Z,7.03
2022-12-23T20:13:12.074Z,9.80
2022-12-23T20:15:38.669Z,5.90
2022-12-23T20:18:05.433Z,9.50
2022-12-23T20:20:32.013Z,10.48
2022-12-23T20:22:58.533Z,10.17
2022-12-23T20:25:25.217Z,8.52
2022-12-23T20:27:51.817Z,7.88
2022-12-23T20:30:20.184Z,8.85
2022-12-23T20:32:46.794Z,11.15
2022-12-23T20:35:13.464Z,8.87
2022-12-23T20:37:40.188Z,8.65
2022-12-23T20:40:08.236Z,8.70
2022-12-23T20:42:34.829Z,6.60
2022-12-23T20:45:01.607Z,6.38
2022-12-23T20:47:29.527Z,11.80
2022-12-23T20:49:56.114Z,9.90
2022-12-23T20:52:22.835Z,9.10
2022-12-23T20:54:49.383Z,7.53
2022-12-23T20:57:15.984Z,8.43
2022-12-23T20:59:42.566Z,9.90
2022-12-23T21:02:12.065Z,8.13
2022-12-23T21:04:40.379Z,9.10
2022-12-23T21:07:06.955Z,12.18
2022-12-23T21:09:34.014Z,9.52
2022-12-23T21:12:01.298Z,9.90
2022-12-23T21:14:27.926Z,11.88
2022-12-23T21:16:54.541Z,11.13
2022-12-23T21:19:23.649Z,9.63
2022-12-23T21:21:52.266Z,8.68
2022-12-23T21:24:19.845Z,11.30
2022-12-23T21:26:51.879Z,10.88
2022-12-23T21:29:22.601Z,14.23
2022-12-23T21:31:49.212Z,12.60
2022-12-23T21:34:15.758Z,12.18
2022-12-23T21:36:42.695Z,10.27
2022-12-23T21:39:14.976Z,11.13
2022-12-23T21:41:42.086Z,9.80
2022-12-23T21:44:11.418Z,12.23
2022-12-23T21:46:38.116Z,10.50
2022-12-23T21:49:04.761Z,9.87
2022-12-23T21:51:39.476Z,10.85
2022-12-23T21:54:06.819Z,8.32
2022-12-23T21:56:35.220Z,9.55
2022-12-23T21:59:04.388Z,12.80
2022-12-23T22:01:32.086Z,12.43
2022-12-23T22:03:59.330Z,8.68
2022-12-23T22:06:27.826Z,9.45
2022-12-23T22:08:55.580Z,10.32
2022-12-23T22:11:24.253Z,7.88
2022-12-23T22:13:52.662Z,9.77
2022-12-23T22:16:22.806Z,10.10
2022-12-23T22:18:50.341Z,10.45
2022-12-23T22:21:18.947Z,10.18
2022-12-23T22:23:46.473Z,9.48
2022-12-23T22:26:20.253Z,9.50
2022-12-23T22:28:52.290Z,12.13
2022-12-23T22:31:21.390Z,8.98
2022-12-23T22:33:48.004Z,9.50
2022-12-23T22:36:15.924Z,9.73
2022-12-23T22:38:43.713Z,9.70
2022-12-23T22:41:10.834Z,8.95
2022-12-23T22:43:37.691Z,10.20
2022-12-23T22:46:05.866Z,5.25
2022-12-23T22:48:32.948Z,8.52
2022-12-23T22:51:03.899Z,7.60
2022-12-23T22:53:30.624Z,9.23
2022-12-23T22:55:59.522Z,8.48
2022-12-23T22:58:26.640Z,10.32
2022-12-23T23:00:53.311Z,11.80
2022-12-23T23:03:21.509Z,10.17
2022-12-23T23:05:56.422Z,9.60
2022-12-23T23:08:23.127Z,7.80
2022-12-23T23:10:49.799Z,7.80
2022-12-23T23:13:16.336Z,7.93
2022-12-23T23:15:44.678Z,7.20
2022-12-23T23:18:11.262Z,8.55
2022-12-23T23:20:39.229Z,12.00
2022-12-23T23:23:05.784Z,9.20
2022-12-23T23:25:32.484Z,6.25
2022-12-23T23:27:59.210Z,6.67
2022-12-23T23:30:25.767Z,8.70
2022-12-23T23:32:52.519Z,10.05
2022-12-23T23:35:19.048Z,8.85
2022-12-23T23:37:47.004Z,8.48
2022-12-23T23:40:13.728Z,8.83
2022-12-23T23:42:40.513Z,7.47
2022-12-23T23:45:08.118Z,9.07
2022-12-23T23:47:34.678Z,11.48
2022-12-23T23:50:01.276Z,10.13
2022-12-23T23:52:28.243Z,11.20
2022-12-23T23:54:56.165Z,7.45
2022-12-23T23:57:23.565Z,8.13
2022-12-23T23:59:50.066Z,7.80
